sensor_id;sensor_type;location;lat;lon;timestamp;P1;durP1;ratioP1;P2;durP2;ratioP2
71763;SDS011;59602;52.142;5.408;2022-10-16T00:01:08;2.83;;;0.40;;
71763;SDS011;59602;52.142;5.408;2022-10-16T00:03:38;1.42;;;0.20;;
71763;SDS011;59602;52.142;5.408;2022-10-16T00:06:06;9.02;;;0.60;;
71763;SDS011;59602;52.142;5.408;2022-10-16T00:08:34;3.75;;;0.50;;
71763;SDS011;59602;52.142;5.408;2022-10-16T00:11:02;2.28;;;0.50;;
71763;SDS011;59602;52.142;5.408;2022-10-16T00:13:32;3.37;;;0.40;;
71763;SDS011;59602;52.142;5.408;2022-10-16T00:15:59;2.03;;;0.40;;
71763;SDS011;59602;52.142;5.408;2022-10-16T00:18:27;2.97;;;0.60;;
71763;SDS011;59602;52.142;5.408;2022-10-16T00:20:54;1.52;;;0.40;;
71763;SDS011;59602;52.142;5.408;2022-10-16T00:23:21;3.72;;;0.30;;
71763;SDS011;59602;52.142;5.408;2022-10-16T00:25:55;6.43;;;0.50;;
71763;SDS011;59602;52.142;5.408;2022-10-16T00:28:23;3.78;;;0.40;;
71763;SDS011;59602;52.142;5.408;2022-10-16T00:30:49;3.88;;;0.40;;
71763;SDS011;59602;52.142;5.408;2022-10-16T00:33:16;3.70;;;0.50;;
71763;SDS011;59602;52.142;5.408;2022-10-16T00:35:42;2.97;;;0.35;;
71763;SDS011;59602;52.142;5.408;2022-10-16T00:38:10;4.83;;;0.40;;
71763;SDS011;59602;52.142;5.408;2022-10-16T00:40:36;3.30;;;0.40;;
71763;SDS011;59602;52.142;5.408;2022-10-16T00:43:07;2.72;;;0.40;;
71763;SDS011;59602;52.142;5.408;2022-10-16T00:45:38;3.75;;;0.50;;
71763;SDS011;59602;52.142;5.408;2022-10-16T00:48:06;4.28;;;0.68;;
71763;SDS011;59602;52.142;5.408;2022-10-16T00:50:39;3.53;;;0.70;;
71763;SDS011;59602;52.142;5.408;2022-10-16T00:53:10;3.47;;;0.63;;
71763;SDS011;59602;52.142;5.408;2022-10-16T00:55:38;5.80;;;1.13;;
71763;SDS011;59602;52.142;5.408;2022-10-16T00:58:07;3.38;;;0.80;;
71763;SDS011;59602;52.142;5.408;2022-10-16T01:00:34;2.22;;;0.50;;
71763;SDS011;59602;52.142;5.408;2022-10-16T01:03:02;2.43;;;0.50;;
71763;SDS011;59602;52.142;5.408;2022-10-16T01:05:35;4.25;;;0.77;;
71763;SDS011;59602;52.142;5.408;2022-10-16T01:08:18;4.13;;;0.73;;
71763;SDS011;59602;52.142;5.408;2022-10-16T01:10:57;4.70;;;0.85;;
71763;SDS011;59602;52.142;5.408;2022-10-16T01:13:33;2.65;;;0.50;;
71763;SDS011;59602;52.142;5.408;2022-10-16T01:16:11;5.73;;;0.80;;
71763;SDS011;59602;52.142;5.408;2022-10-16T01:18:43;3.45;;;0.88;;
71763;SDS011;59602;52.142;5.408;2022-10-16T01:21:20;5.78;;;0.93;;
71763;SDS011;59602;52.142;5.408;2022-10-16T01:24:00;3.50;;;0.77;;
71763;SDS011;59602;52.142;5.408;2022-10-16T01:26:44;3.83;;;1.20;;
71763;SDS011;59602;52.142;5.408;2022-10-16T01:29:44;2.47;;;1.00;;
71763;SDS011;59602;52.142;5.408;2022-10-16T01:32:33;3.33;;;1.20;;
71763;SDS011;59602;52.142;5.408;2022-10-16T01:35:11;7.22;;;1.15;;
71763;SDS011;59602;52.142;5.408;2022-10-16T01:37:46;4.88;;;1.30;;
71763;SDS011;59602;52.142;5.408;2022-10-16T01:40:21;3.80;;;1.38;;
71763;SDS011;59602;52.142;5.408;2022-10-16T01:42:53;5.60;;;1.30;;
71763;SDS011;59602;52.142;5.408;2022-10-16T01:45:26;5.95;;;1.15;;
71763;SDS011;59602;52.142;5.408;2022-10-16T01:47:55;5.22;;;1.30;;
71763;SDS011;59602;52.142;5.408;2022-10-16T01:50:23;5.90;;;1.50;;
71763;SDS011;59602;52.142;5.408;2022-10-16T01:52:51;4.15;;;1.70;;
71763;SDS011;59602;52.142;5.408;2022-10-16T01:55:24;4.37;;;1.53;;
71763;SDS011;59602;52.142;5.408;2022-10-16T01:57:55;5.03;;;1.48;;
71763;SDS011;59602;52.142;5.408;2022-10-16T02:00:26;5.03;;;1.90;;
71763;SDS011;59602;52.142;5.408;2022-10-16T02:02:54;7.10;;;1.55;;
71763;SDS011;59602;52.142;5.408;2022-10-16T02:05:29;4.10;;;1.50;;
71763;SDS011;59602;52.142;5.408;2022-10-16T02:08:00;8.60;;;1.70;;
71763;SDS011;59602;52.142;5.408;2022-10-16T02:10:31;3.05;;;1.02;;
71763;SDS011;59602;52.142;5.408;2022-10-16T02:13:00;6.05;;;1.30;;
71763;SDS011;59602;52.142;5.408;2022-10-16T02:15:33;4.15;;;1.33;;
71763;SDS011;59602;52.142;5.408;2022-10-16T02:17:59;3.25;;;1.08;;
71763;SDS011;59602;52.142;5.408;2022-10-16T02:20:27;5.73;;;1.37;;
71763;SDS011;59602;52.142;5.408;2022-10-16T02:22:58;4.05;;;1.30;;
71763;SDS011;59602;52.142;5.408;2022-10-16T02:25:31;5.15;;;1.25;;
71763;SDS011;59602;52.142;5.408;2022-10-16T02:28:06;4.88;;;1.50;;
71763;SDS011;59602;52.142;5.408;2022-10-16T02:30:38;4.90;;;1.30;;
71763;SDS011;59602;52.142;5.408;2022-10-16T02:33:10;3.87;;;0.97;;
71763;SDS011;59602;52.142;5.408;2022-10-16T02:35:40;4.97;;;1.00;;
71763;SDS011;59602;52.142;5.408;2022-10-16T02:38:07;4.15;;;0.95;;
71763;SDS011;59602;52.142;5.408;2022-10-16T02:40:36;4.38;;;0.90;;
71763;SDS011;59602;52.142;5.408;2022-10-16T02:43:03;6.55;;;1.10;;
71763;SDS011;59602;52.142;5.408;2022-10-16T02:45:32;3.70;;;1.60;;
71763;SDS011;59602;52.142;5.408;2022-10-16T02:47:59;3.63;;;1.15;;
71763;SDS011;59602;52.142;5.408;2022-10-16T02:50:25;2.65;;;1.02;;
71763;SDS011;59602;52.142;5.408;2022-10-16T02:52:52;3.53;;;0.70;;
71763;SDS011;59602;52.142;5.408;2022-10-16T02:55:19;2.95;;;0.80;;
71763;SDS011;59602;52.142;5.408;2022-10-16T02:57:45;4.20;;;0.60;;
71763;SDS011;59602;52.142;5.408;2022-10-16T03:00:13;4.40;;;0.75;;
71763;SDS011;59602;52.142;5.408;2022-10-16T03:02:41;3.90;;;0.68;;
71763;SDS011;59602;52.142;5.408;2022-10-16T03:05:08;2.08;;;0.75;;
71763;SDS011;59602;52.142;5.408;2022-10-16T03:07:35;3.20;;;0.80;;
71763;SDS011;59602;52.142;5.408;2022-10-16T03:10:02;4.70;;;0.90;;
71763;SDS011;59602;52.142;5.408;2022-10-16T03:12:28;3.20;;;1.00;;
71763;SDS011;59602;52.142;5.408;2022-10-16T03:14:55;4.03;;;0.70;;
71763;SDS011;59602;52.142;5.408;2022-10-16T03:17:23;2.63;;;0.60;;
71763;SDS011;59602;52.142;5.408;2022-10-16T03:19:50;4.45;;;0.75;;
71763;SDS011;59602;52.142;5.408;2022-10-16T03:22:17;2.60;;;0.50;;
71763;SDS011;59602;52.142;5.408;2022-10-16T03:24:44;6.05;;;0.85;;
71763;SDS011;59602;52.142;5.408;2022-10-16T03:27:10;3.00;;;0.80;;
71763;SDS011;59602;52.142;5.408;2022-10-16T03:29:37;3.65;;;0.70;;
71763;SDS011;59602;52.142;5.408;2022-10-16T03:32:03;3.72;;;0.80;;
71763;SDS011;59602;52.142;5.408;2022-10-16T03:34:30;2.50;;;0.73;;
71763;SDS011;59602;52.142;5.408;2022-10-16T03:36:56;3.47;;;0.65;;
71763;SDS011;59602;52.142;5.408;2022-10-16T03:39:23;3.42;;;0.50;;
71763;SDS011;59602;52.142;5.408;2022-10-16T03:41:50;3.38;;;0.57;;
71763;SDS011;59602;52.142;5.408;2022-10-16T03:44:16;1.75;;;0.47;;
71763;SDS011;59602;52.142;5.408;2022-10-16T03:46:44;2.53;;;0.60;;
71763;SDS011;59602;52.142;5.408;2022-10-16T03:49:11;2.85;;;0.55;;
71763;SDS011;59602;52.142;5.408;2022-10-16T03:51:37;3.72;;;0.73;;
71763;SDS011;59602;52.142;5.408;2022-10-16T03:54:04;3.20;;;0.70;;
71763;SDS011;59602;52.142;5.408;2022-10-16T03:56:31;2.00;;;0.68;;
71763;SDS011;59602;52.142;5.408;2022-10-16T03:58:57;1.83;;;0.67;;
71763;SDS011;59602;52.142;5.408;2022-10-16T04:01:24;3.08;;;0.82;;
71763;SDS011;59602;52.142;5.408;2022-10-16T04:03:51;3.50;;;0.70;;
71763;SDS011;59602;52.142;5.408;2022-10-16T04:06:17;3.95;;;0.60;;
71763;SDS011;59602;52.142;5.408;2022-10-16T04:08:44;2.08;;;0.57;;
71763;SDS011;59602;52.142;5.408;2022-10-16T04:11:10;4.97;;;0.67;;
71763;SDS011;59602;52.142;5.408;2022-10-16T04:13:37;2.42;;;0.60;;
71763;SDS011;59602;52.142;5.408;2022-10-16T04:16:04;3.00;;;0.68;;
71763;SDS011;59602;52.142;5.408;2022-10-16T04:18:31;4.43;;;0.57;;
71763;SDS011;59602;52.142;5.408;2022-10-16T04:21:01;10.52;;;0.70;;
71763;SDS011;59602;52.142;5.408;2022-10-16T04:23:28;3.17;;;0.63;;
71763;SDS011;59602;52.142;5.408;2022-10-16T04:25:55;4.82;;;0.50;;
71763;SDS011;59602;52.142;5.408;2022-10-16T04:28:21;5.38;;;0.90;;
71763;SDS011;59602;52.142;5.408;2022-10-16T04:30:48;3.50;;;0.50;;
71763;SDS011;59602;52.142;5.408;2022-10-16T04:33:15;7.20;;;0.80;;
71763;SDS011;59602;52.142;5.408;2022-10-16T04:35:41;4.33;;;0.50;;
71763;SDS011;59602;52.142;5.408;2022-10-16T04:38:08;2.97;;;0.50;;
71763;SDS011;59602;52.142;5.408;2022-10-16T04:40:34;5.72;;;0.52;;
71763;SDS011;59602;52.142;5.408;2022-10-16T04:43:03;1.95;;;0.40;;
71763;SDS011;59602;52.142;5.408;2022-10-16T04:45:30;2.40;;;0.30;;
71763;SDS011;59602;52.142;5.408;2022-10-16T04:47:57;2.63;;;0.50;;
71763;SDS011;59602;52.142;5.408;2022-10-16T04:50:25;1.80;;;0.50;;
71763;SDS011;59602;52.142;5.408;2022-10-16T04:52:51;2.85;;;0.50;;
71763;SDS011;59602;52.142;5.408;2022-10-16T04:55:18;2.35;;;0.30;;
71763;SDS011;59602;52.142;5.408;2022-10-16T04:57:44;4.20;;;0.50;;
71763;SDS011;59602;52.142;5.408;2022-10-16T05:00:11;0.83;;;0.20;;
71763;SDS011;59602;52.142;5.408;2022-10-16T05:02:38;2.97;;;0.38;;
71763;SDS011;59602;52.142;5.408;2022-10-16T05:05:05;1.92;;;0.40;;
71763;SDS011;59602;52.142;5.408;2022-10-16T05:07:32;1.95;;;0.30;;
71763;SDS011;59602;52.142;5.408;2022-10-16T05:09:58;1.73;;;0.30;;
71763;SDS011;59602;52.142;5.408;2022-10-16T05:12:25;2.00;;;0.30;;
71763;SDS011;59602;52.142;5.408;2022-10-16T05:14:52;2.90;;;0.45;;
71763;SDS011;59602;52.142;5.408;2022-10-16T05:17:18;4.65;;;0.40;;
71763;SDS011;59602;52.142;5.408;2022-10-16T05:19:45;3.42;;;0.30;;
71763;SDS011;59602;52.142;5.408;2022-10-16T05:22:11;3.78;;;0.40;;
71763;SDS011;59602;52.142;5.408;2022-10-16T05:24:38;2.27;;;0.30;;
71763;SDS011;59602;52.142;5.408;2022-10-16T05:27:04;1.65;;;0.60;;
71763;SDS011;59602;52.142;5.408;2022-10-16T05:29:31;1.42;;;0.30;;
71763;SDS011;59602;52.142;5.408;2022-10-16T05:31:58;0.98;;;0.20;;
71763;SDS011;59602;52.142;5.408;2022-10-16T05:34:24;4.47;;;0.43;;
71763;SDS011;59602;52.142;5.408;2022-10-16T05:36:51;4.93;;;0.50;;
71763;SDS011;59602;52.142;5.408;2022-10-16T05:39:17;3.33;;;0.30;;
71763;SDS011;59602;52.142;5.408;2022-10-16T05:41:44;4.45;;;0.40;;
71763;SDS011;59602;52.142;5.408;2022-10-16T05:44:11;2.53;;;0.55;;
71763;SDS011;59602;52.142;5.408;2022-10-16T05:46:38;1.80;;;0.50;;
71763;SDS011;59602;52.142;5.408;2022-10-16T05:49:04;2.63;;;0.30;;
71763;SDS011;59602;52.142;5.408;2022-10-16T05:51:31;2.58;;;0.30;;
71763;SDS011;59602;52.142;5.408;2022-10-16T05:53:58;1.80;;;0.40;;
71763;SDS011;59602;52.142;5.408;2022-10-16T05:56:24;6.05;;;2.60;;
71763;SDS011;59602;52.142;5.408;2022-10-16T05:58:51;2.80;;;0.40;;
71763;SDS011;59602;52.142;5.408;2022-10-16T06:01:18;2.13;;;0.50;;
71763;SDS011;59602;52.142;5.408;2022-10-16T06:03:46;2.28;;;0.43;;
71763;SDS011;59602;52.142;5.408;2022-10-16T06:06:14;3.55;;;0.60;;
71763;SDS011;59602;52.142;5.408;2022-10-16T06:08:49;3.42;;;0.60;;
71763;SDS011;59602;52.142;5.408;2022-10-16T06:11:17;3.35;;;0.40;;
71763;SDS011;59602;52.142;5.408;2022-10-16T06:13:49;3.10;;;0.57;;
71763;SDS011;59602;52.142;5.408;2022-10-16T06:16:16;3.92;;;0.50;;
71763;SDS011;59602;52.142;5.408;2022-10-16T06:18:43;4.15;;;0.50;;
71763;SDS011;59602;52.142;5.408;2022-10-16T06:21:11;1.38;;;0.40;;
71763;SDS011;59602;52.142;5.408;2022-10-16T06:23:40;2.78;;;0.82;;
71763;SDS011;59602;52.142;5.408;2022-10-16T06:26:08;3.20;;;0.50;;
71763;SDS011;59602;52.142;5.408;2022-10-16T06:28:36;3.60;;;0.70;;
71763;SDS011;59602;52.142;5.408;2022-10-16T06:31:04;4.18;;;0.50;;
71763;SDS011;59602;52.142;5.408;2022-10-16T06:33:34;5.53;;;0.70;;
71763;SDS011;59602;52.142;5.408;2022-10-16T06:36:05;2.17;;;0.45;;
71763;SDS011;59602;52.142;5.408;2022-10-16T06:38:37;2.10;;;0.50;;
71763;SDS011;59602;52.142;5.408;2022-10-16T06:41:05;2.50;;;0.40;;
71763;SDS011;59602;52.142;5.408;2022-10-16T06:43:33;2.35;;;0.30;;
71763;SDS011;59602;52.142;5.408;2022-10-16T06:46:01;1.58;;;0.40;;
71763;SDS011;59602;52.142;5.408;2022-10-16T06:48:29;2.38;;;0.50;;
71763;SDS011;59602;52.142;5.408;2022-10-16T06:50:59;3.37;;;0.60;;
71763;SDS011;59602;52.142;5.408;2022-10-16T06:53:29;1.67;;;0.52;;
71763;SDS011;59602;52.142;5.408;2022-10-16T06:56:19;3.88;;;0.50;;
71763;SDS011;59602;52.142;5.408;2022-10-16T06:58:48;4.75;;;0.60;;
71763;SDS011;59602;52.142;5.408;2022-10-16T07:01:15;4.82;;;1.02;;
71763;SDS011;59602;52.142;5.408;2022-10-16T07:03:44;3.80;;;0.70;;
71763;SDS011;59602;52.142;5.408;2022-10-16T07:06:13;2.83;;;0.40;;
71763;SDS011;59602;52.142;5.408;2022-10-16T07:08:41;1.35;;;0.50;;
71763;SDS011;59602;52.142;5.408;2022-10-16T07:11:10;4.85;;;0.55;;
71763;SDS011;59602;52.142;5.408;2022-10-16T07:13:39;4.05;;;0.50;;
71763;SDS011;59602;52.142;5.408;2022-10-16T07:16:09;2.90;;;1.07;;
71763;SDS011;59602;52.142;5.408;2022-10-16T07:18:38;5.13;;;0.80;;
71763;SDS011;59602;52.142;5.408;2022-10-16T07:21:06;3.55;;;0.60;;
71763;SDS011;59602;52.142;5.408;2022-10-16T07:23:35;2.95;;;0.60;;
71763;SDS011;59602;52.142;5.408;2022-10-16T07:26:02;5.22;;;0.70;;
71763;SDS011;59602;52.142;5.408;2022-10-16T07:28:29;1.53;;;0.30;;
71763;SDS011;59602;52.142;5.408;2022-10-16T07:31:02;4.75;;;0.50;;
71763;SDS011;59602;52.142;5.408;2022-10-16T07:33:30;4.30;;;0.60;;
71763;SDS011;59602;52.142;5.408;2022-10-16T07:36:00;4.95;;;0.65;;
71763;SDS011;59602;52.142;5.408;2022-10-16T07:38:27;2.78;;;0.30;;
71763;SDS011;59602;52.142;5.408;2022-10-16T07:40:55;2.60;;;0.30;;
71763;SDS011;59602;52.142;5.408;2022-10-16T07:43:24;2.03;;;0.30;;
71763;SDS011;59602;52.142;5.408;2022-10-16T07:45:51;5.28;;;0.40;;
71763;SDS011;59602;52.142;5.408;2022-10-16T07:48:19;3.28;;;0.25;;
71763;SDS011;59602;52.142;5.408;2022-10-16T07:50:45;3.08;;;0.30;;
71763;SDS011;59602;52.142;5.408;2022-10-16T07:53:12;3.23;;;0.50;;
71763;SDS011;59602;52.142;5.408;2022-10-16T07:55:39;3.15;;;0.68;;
71763;SDS011;59602;52.142;5.408;2022-10-16T07:58:06;4.68;;;0.63;;
71763;SDS011;59602;52.142;5.408;2022-10-16T08:00:33;4.00;;;0.50;;
71763;SDS011;59602;52.142;5.408;2022-10-16T08:03:02;2.65;;;0.55;;
71763;SDS011;59602;52.142;5.408;2022-10-16T08:05:29;2.40;;;0.40;;
71763;SDS011;59602;52.142;5.408;2022-10-16T08:07:57;3.58;;;0.40;;
71763;SDS011;59602;52.142;5.408;2022-10-16T08:10:24;2.15;;;0.43;;
71763;SDS011;59602;52.142;5.408;2022-10-16T08:12:52;4.80;;;0.45;;
71763;SDS011;59602;52.142;5.408;2022-10-16T08:15:20;2.17;;;0.45;;
71763;SDS011;59602;52.142;5.408;2022-10-16T08:18:00;5.40;;;0.47;;
71763;SDS011;59602;52.142;5.408;2022-10-16T08:20:29;2.08;;;0.50;;
71763;SDS011;59602;52.142;5.408;2022-10-16T08:22:57;2.67;;;0.70;;
71763;SDS011;59602;52.142;5.408;2022-10-16T08:25:23;3.00;;;0.85;;
71763;SDS011;59602;52.142;5.408;2022-10-16T08:27:51;2.90;;;0.40;;
71763;SDS011;59602;52.142;5.408;2022-10-16T08:30:18;4.53;;;0.50;;
71763;SDS011;59602;52.142;5.408;2022-10-16T08:32:46;5.78;;;0.60;;
71763;SDS011;59602;52.142;5.408;2022-10-16T08:35:13;3.65;;;0.50;;
71763;SDS011;59602;52.142;5.408;2022-10-16T08:37:40;6.22;;;0.60;;
71763;SDS011;59602;52.142;5.408;2022-10-16T08:40:12;2.63;;;0.50;;
71763;SDS011;59602;52.142;5.408;2022-10-16T08:45:21;3.38;;;0.50;;
71763;SDS011;59602;52.142;5.408;2022-10-16T08:48:00;5.40;;;0.60;;
71763;SDS011;59602;52.142;5.408;2022-10-16T08:50:42;2.13;;;0.60;;
71763;SDS011;59602;52.142;5.408;2022-10-16T08:53:16;4.65;;;0.50;;
71763;SDS011;59602;52.142;5.408;2022-10-16T08:55:50;2.93;;;0.50;;
71763;SDS011;59602;52.142;5.408;2022-10-16T08:58:19;1.90;;;0.30;;
71763;SDS011;59602;52.142;5.408;2022-10-16T09:00:50;3.72;;;0.52;;
71763;SDS011;59602;52.142;5.408;2022-10-16T09:03:23;4.47;;;0.60;;
71763;SDS011;59602;52.142;5.408;2022-10-16T09:06:07;4.13;;;0.73;;
71763;SDS011;59602;52.142;5.408;2022-10-16T09:08:55;2.27;;;0.40;;
71763;SDS011;59602;52.142;5.408;2022-10-16T09:16:45;5.25;;;0.70;;
71763;SDS011;59602;52.142;5.408;2022-10-16T09:19:20;4.82;;;0.40;;
71763;SDS011;59602;52.142;5.408;2022-10-16T09:21:59;2.47;;;0.60;;
71763;SDS011;59602;52.142;5.408;2022-10-16T09:24:29;3.67;;;0.52;;
71763;SDS011;59602;52.142;5.408;2022-10-16T09:26:56;4.07;;;0.35;;
71763;SDS011;59602;52.142;5.408;2022-10-16T09:29:22;4.72;;;0.50;;
71763;SDS011;59602;52.142;5.408;2022-10-16T09:31:52;4.07;;;0.80;;
71763;SDS011;59602;52.142;5.408;2022-10-16T09:34:32;6.10;;;0.50;;
71763;SDS011;59602;52.142;5.408;2022-10-16T09:37:03;6.28;;;0.60;;
71763;SDS011;59602;52.142;5.408;2022-10-16T09:39:44;5.43;;;0.50;;
71763;SDS011;59602;52.142;5.408;2022-10-16T09:42:17;4.28;;;0.68;;
71763;SDS011;59602;52.142;5.408;2022-10-16T09:44:48;5.47;;;0.45;;
71763;SDS011;59602;52.142;5.408;2022-10-16T09:47:18;6.57;;;1.00;;
71763;SDS011;59602;52.142;5.408;2022-10-16T09:49:50;6.10;;;0.68;;
71763;SDS011;59602;52.142;5.408;2022-10-16T09:52:28;6.95;;;0.63;;
71763;SDS011;59602;52.142;5.408;2022-10-16T09:54:57;9.63;;;0.60;;
71763;SDS011;59602;52.142;5.408;2022-10-16T09:57:25;5.05;;;0.63;;
71763;SDS011;59602;52.142;5.408;2022-10-16T09:59:54;6.80;;;0.80;;
71763;SDS011;59602;52.142;5.408;2022-10-16T10:02:28;4.72;;;0.35;;
71763;SDS011;59602;52.142;5.408;2022-10-16T10:04:57;4.35;;;0.38;;
71763;SDS011;59602;52.142;5.408;2022-10-16T10:09:55;4.15;;;0.30;;
71763;SDS011;59602;52.142;5.408;2022-10-16T10:12:25;4.30;;;0.40;;
71763;SDS011;59602;52.142;5.408;2022-10-16T10:14:55;3.03;;;0.30;;
71763;SDS011;59602;52.142;5.408;2022-10-16T10:17:24;6.57;;;0.40;;
71763;SDS011;59602;52.142;5.408;2022-10-16T10:19:53;5.00;;;0.50;;
71763;SDS011;59602;52.142;5.408;2022-10-16T10:22:25;6.25;;;0.40;;
71763;SDS011;59602;52.142;5.408;2022-10-16T10:33:11;5.55;;;0.60;;
71763;SDS011;59602;52.142;5.408;2022-10-16T10:35:57;9.88;;;0.85;;
71763;SDS011;59602;52.142;5.408;2022-10-16T10:41:05;5.75;;;0.60;;
71763;SDS011;59602;52.142;5.408;2022-10-16T10:46:38;4.53;;;0.50;;
71763;SDS011;59602;52.142;5.408;2022-10-16T10:49:16;6.75;;;0.40;;
71763;SDS011;59602;52.142;5.408;2022-10-16T10:52:02;6.30;;;0.53;;
71763;SDS011;59602;52.142;5.408;2022-10-16T10:57:15;7.22;;;0.52;;
71763;SDS011;59602;52.142;5.408;2022-10-16T11:02:40;4.55;;;0.47;;
71763;SDS011;59602;52.142;5.408;2022-10-16T11:10:27;3.35;;;0.30;;
71763;SDS011;59602;52.142;5.408;2022-10-16T11:13:10;5.85;;;0.50;;
71763;SDS011;59602;52.142;5.408;2022-10-16T11:15:47;5.88;;;0.60;;
71763;SDS011;59602;52.142;5.408;2022-10-16T11:18:20;5.57;;;0.33;;
71763;SDS011;59602;52.142;5.408;2022-10-16T11:20:53;5.40;;;0.40;;
71763;SDS011;59602;52.142;5.408;2022-10-16T11:23:28;5.93;;;0.45;;
71763;SDS011;59602;52.142;5.408;2022-10-16T11:26:00;4.97;;;0.30;;
71763;SDS011;59602;52.142;5.408;2022-10-16T11:28:34;4.35;;;0.47;;
71763;SDS011;59602;52.142;5.408;2022-10-16T11:33:52;3.88;;;0.30;;
71763;SDS011;59602;52.142;5.408;2022-10-16T11:39:03;6.28;;;0.50;;
71763;SDS011;59602;52.142;5.408;2022-10-16T11:44:16;4.23;;;0.53;;
71763;SDS011;59602;52.142;5.408;2022-10-16T11:47:08;4.78;;;0.45;;
71763;SDS011;59602;52.142;5.408;2022-10-16T11:50:01;5.90;;;0.40;;
71763;SDS011;59602;52.142;5.408;2022-10-16T11:52:54;5.05;;;0.30;;
71763;SDS011;59602;52.142;5.408;2022-10-16T11:55:23;4.20;;;0.45;;
71763;SDS011;59602;52.142;5.408;2022-10-16T11:57:58;6.37;;;0.50;;
71763;SDS011;59602;52.142;5.408;2022-10-16T12:00:31;4.32;;;0.35;;
71763;SDS011;59602;52.142;5.408;2022-10-16T12:03:15;4.78;;;0.30;;
71763;SDS011;59602;52.142;5.408;2022-10-16T12:05:52;6.63;;;0.70;;
71763;SDS011;59602;52.142;5.408;2022-10-16T12:08:45;5.95;;;0.75;;
71763;SDS011;59602;52.142;5.408;2022-10-16T12:11:35;5.20;;;0.33;;
71763;SDS011;59602;52.142;5.408;2022-10-16T12:16:33;6.15;;;0.52;;
71763;SDS011;59602;52.142;5.408;2022-10-16T12:19:11;3.65;;;0.38;;
71763;SDS011;59602;52.142;5.408;2022-10-16T12:21:41;4.32;;;0.40;;
71763;SDS011;59602;52.142;5.408;2022-10-16T12:24:21;3.40;;;0.37;;
71763;SDS011;59602;52.142;5.408;2022-10-16T12:26:54;3.70;;;0.30;;
71763;SDS011;59602;52.142;5.408;2022-10-16T12:29:32;4.15;;;0.35;;
71763;SDS011;59602;52.142;5.408;2022-10-16T12:32:24;4.85;;;0.32;;
71763;SDS011;59602;52.142;5.408;2022-10-16T12:35:21;4.53;;;0.40;;
71763;SDS011;59602;52.142;5.408;2022-10-16T12:37:50;3.07;;;0.40;;
71763;SDS011;59602;52.142;5.408;2022-10-16T12:42:48;4.38;;;0.40;;
71763;SDS011;59602;52.142;5.408;2022-10-16T12:45:25;4.72;;;0.50;;
71763;SDS011;59602;52.142;5.408;2022-10-16T12:47:53;2.13;;;0.38;;
71763;SDS011;59602;52.142;5.408;2022-10-16T12:52:54;4.70;;;0.30;;
71763;SDS011;59602;52.142;5.408;2022-10-16T12:55:21;4.65;;;0.30;;
71763;SDS011;59602;52.142;5.408;2022-10-16T12:57:56;3.40;;;0.30;;
71763;SDS011;59602;52.142;5.408;2022-10-16T13:08:24;6.35;;;0.40;;
71763;SDS011;59602;52.142;5.408;2022-10-16T13:11:19;6.65;;;0.30;;
71763;SDS011;59602;52.142;5.408;2022-10-16T13:24:51;2.67;;;0.20;;
71763;SDS011;59602;52.142;5.408;2022-10-16T13:27:56;4.95;;;0.32;;
71763;SDS011;59602;52.142;5.408;2022-10-16T13:30:30;3.23;;;0.30;;
71763;SDS011;59602;52.142;5.408;2022-10-16T13:33:04;6.10;;;0.73;;
71763;SDS011;59602;52.142;5.408;2022-10-16T13:35:34;5.82;;;0.40;;
71763;SDS011;59602;52.142;5.408;2022-10-16T13:38:09;5.20;;;0.38;;
71763;SDS011;59602;52.142;5.408;2022-10-16T13:40:47;4.75;;;0.30;;
71763;SDS011;59602;52.142;5.408;2022-10-16T13:43:16;5.23;;;0.30;;
71763;SDS011;59602;52.142;5.408;2022-10-16T13:45:52;6.40;;;0.38;;
71763;SDS011;59602;52.142;5.408;2022-10-16T13:48:20;5.90;;;0.30;;
71763;SDS011;59602;52.142;5.408;2022-10-16T13:50:46;6.40;;;0.30;;
71763;SDS011;59602;52.142;5.408;2022-10-16T13:53:25;3.88;;;0.22;;
71763;SDS011;59602;52.142;5.408;2022-10-16T13:55:51;3.50;;;0.30;;
71763;SDS011;59602;52.142;5.408;2022-10-16T13:58:18;10.15;;;0.68;;
71763;SDS011;59602;52.142;5.408;2022-10-16T14:00:53;7.22;;;0.30;;
71763;SDS011;59602;52.142;5.408;2022-10-16T14:03:23;6.07;;;0.30;;
71763;SDS011;59602;52.142;5.408;2022-10-16T14:05:52;6.78;;;0.30;;
71763;SDS011;59602;52.142;5.408;2022-10-16T14:08:21;6.30;;;0.43;;
71763;SDS011;59602;52.142;5.408;2022-10-16T14:10:51;5.53;;;0.40;;
71763;SDS011;59602;52.142;5.408;2022-10-16T14:13:28;6.68;;;0.43;;
71763;SDS011;59602;52.142;5.408;2022-10-16T14:15:57;4.65;;;0.43;;
71763;SDS011;59602;52.142;5.408;2022-10-16T14:18:27;9.27;;;0.40;;
71763;SDS011;59602;52.142;5.408;2022-10-16T14:21:06;2.40;;;0.20;;
71763;SDS011;59602;52.142;5.408;2022-10-16T14:23:39;4.45;;;0.20;;
71763;SDS011;59602;52.142;5.408;2022-10-16T14:26:11;6.22;;;0.30;;
71763;SDS011;59602;52.142;5.408;2022-10-16T14:28:40;7.97;;;0.70;;
71763;SDS011;59602;52.142;5.408;2022-10-16T14:33:51;5.33;;;0.20;;
71763;SDS011;59602;52.142;5.408;2022-10-16T14:36:17;6.03;;;0.43;;
71763;SDS011;59602;52.142;5.408;2022-10-16T14:38:57;6.38;;;0.50;;
71763;SDS011;59602;52.142;5.408;2022-10-16T14:41:29;6.75;;;0.43;;
71763;SDS011;59602;52.142;5.408;2022-10-16T14:44:01;8.23;;;0.35;;
71763;SDS011;59602;52.142;5.408;2022-10-16T14:46:31;4.70;;;0.50;;
71763;SDS011;59602;52.142;5.408;2022-10-16T14:49:03;5.43;;;0.20;;
71763;SDS011;59602;52.142;5.408;2022-10-16T14:51:35;5.20;;;0.40;;
71763;SDS011;59602;52.142;5.408;2022-10-16T14:54:03;16.02;;;0.82;;
71763;SDS011;59602;52.142;5.408;2022-10-16T14:56:35;5.60;;;0.40;;
71763;SDS011;59602;52.142;5.408;2022-10-16T14:59:25;6.03;;;0.40;;
71763;SDS011;59602;52.142;5.408;2022-10-16T15:01:56;5.97;;;0.40;;
71763;SDS011;59602;52.142;5.408;2022-10-16T15:04:25;4.90;;;0.75;;
71763;SDS011;59602;52.142;5.408;2022-10-16T15:06:55;4.88;;;0.40;;
71763;SDS011;59602;52.142;5.408;2022-10-16T15:09:22;3.10;;;0.30;;
71763;SDS011;59602;52.142;5.408;2022-10-16T15:12:23;13.67;;;0.53;;
71763;SDS011;59602;52.142;5.408;2022-10-16T15:14:49;5.25;;;0.60;;
71763;SDS011;59602;52.142;5.408;2022-10-16T15:17:19;7.82;;;0.60;;
71763;SDS011;59602;52.142;5.408;2022-10-16T15:19:49;6.90;;;0.32;;
71763;SDS011;59602;52.142;5.408;2022-10-16T15:22:17;8.48;;;0.50;;
71763;SDS011;59602;52.142;5.408;2022-10-16T15:24:44;8.60;;;0.40;;
71763;SDS011;59602;52.142;5.408;2022-10-16T15:27:21;8.43;;;0.68;;
71763;SDS011;59602;52.142;5.408;2022-10-16T15:41:01;9.90;;;0.83;;
71763;SDS011;59602;52.142;5.408;2022-10-16T15:43:52;10.25;;;0.40;;
71763;SDS011;59602;52.142;5.408;2022-10-16T15:52:38;6.43;;;0.30;;
71763;SDS011;59602;52.142;5.408;2022-10-16T15:55:17;8.30;;;0.93;;
71763;SDS011;59602;52.142;5.408;2022-10-16T15:57:45;5.20;;;0.22;;
71763;SDS011;59602;52.142;5.408;2022-10-16T16:00:14;4.60;;;0.52;;
71763;SDS011;59602;52.142;5.408;2022-10-16T16:02:48;5.20;;;0.40;;
71763;SDS011;59602;52.142;5.408;2022-10-16T16:05:18;5.72;;;0.40;;
71763;SDS011;59602;52.142;5.408;2022-10-16T16:07:45;2.40;;;0.30;;
71763;SDS011;59602;52.142;5.408;2022-10-16T16:10:12;7.15;;;0.30;;
71763;SDS011;59602;52.142;5.408;2022-10-16T16:12:42;9.98;;;0.82;;
71763;SDS011;59602;52.142;5.408;2022-10-16T16:19:16;6.45;;;0.30;;
71763;SDS011;59602;52.142;5.408;2022-10-16T16:21:47;9.67;;;0.47;;
71763;SDS011;59602;52.142;5.408;2022-10-16T16:31:56;5.43;;;0.60;;
71763;SDS011;59602;52.142;5.408;2022-10-16T16:34:54;4.38;;;0.50;;
71763;SDS011;59602;52.142;5.408;2022-10-16T16:37:43;5.17;;;0.40;;
71763;SDS011;59602;52.142;5.408;2022-10-16T17:15:46;8.65;;;4.07;;
71763;SDS011;59602;52.142;5.408;2022-10-16T17:18:21;10.55;;;3.10;;
71763;SDS011;59602;52.142;5.408;2022-10-16T19:56:18;9.00;;;3.42;;
71763;SDS011;59602;52.142;5.408;2022-10-16T19:58:47;12.00;;;4.50;;
71763;SDS011;59602;52.142;5.408;2022-10-16T20:01:16;11.77;;;4.53;;
71763;SDS011;59602;52.142;5.408;2022-10-16T20:03:44;10.23;;;4.57;;